ΕΜΥ, Εθνική Μετεωρολογική Υπηρεσία - Δελτία Καιρού, Προγνώσεις

ΑΕΡΟΝΑΥΤΙΛΙΑ

GREEK AIRPORTS CODES

EUROPEAN AIRPORTS CODES

EBBR 222220Z 10003KT 060V140 1000 R25L/P2000N R25R/P2000N R01/P2000N BR -DZ SCT001 BKN002 03/03 Q1036 TEMPO 0500 FG BKN001=